Time;durP1;ratioP1;P1;durP2;ratioP2;P2;SDS_P1;SDS_P2;PMS_P1;PMS_P2;Temp;Humidity;BMP_temperature;BMP_pressure;BME280_temperature;BME280_humidity;BME280_pressure;Samples;Min_cycle;Max_cycle;Signal;HPM_P1;HPM_P2
2022/03/19 00:00:44;;;;;;;30.80;13.95;;;1.20;97.30;;;;;;6236402;23;20028;-80
2022/03/19 00:03:10;;;;;;;26.15;12.90;;;1.20;97.80;;;;;;6236798;23;20370;-79
2022/03/19 00:05:36;;;;;;;;;;;1.10;98.20;;;;;;6210557;23;20005;-80
2022/03/19 00:08:02;;;;;;;24.60;12.63;;;1.10;98.60;;;;;;6237483;23;19907;-80
2022/03/19 00:10:28;;;;;;;27.00;13.23;;;1.10;98.70;;;;;;6211615;23;20036;-80
2022/03/19 00:12:54;;;;;;;;;;;1.00;99.00;;;;;;6211320;23;20040;-79
2022/03/19 00:15:20;;;;;;;30.50;14.65;;;1.00;99.90;;;;;;6236591;23;19915;-80
2022/03/19 00:17:45;;;;;;;;;;;1.00;99.90;;;;;;6238687;23;20003;-80
2022/03/19 00:20:12;;;;;;;28.92;14.27;;;1.00;99.90;;;;;;6238394;23;19922;-80
2022/03/19 00:22:38;;;;;;;32.50;14.43;;;1.00;99.90;;;;;;6239851;23;19988;-79
2022/03/19 00:25:04;;;;;;;32.10;13.90;;;1.00;99.90;;;;;;6239884;23;20004;-80
2022/03/19 00:27:30;;;;;;;35.08;15.23;;;0.90;99.90;;;;;;6239472;23;20012;-79
2022/03/19 00:29:56;;;;;;;;;;;0.90;99.90;;;;;;6238617;23;20461;-79
2022/03/19 00:32:21;;;;;;;39.60;18.08;;;1.00;99.90;;;;;;6240068;23;19891;-80
2022/03/19 00:34:47;;;;;;;45.15;19.00;;;1.00;99.90;;;;;;6238416;23;20047;-78
2022/03/19 00:37:13;;;;;;;43.95;20.10;;;0.90;99.90;;;;;;6214180;23;20005;-79
2022/03/19 00:39:38;;;;;;;35.97;17.52;;;0.90;99.90;;;;;;6241431;23;20056;-78
2022/03/19 00:42:04;;;;;;;;;;;0.80;99.90;;;;;;6240710;23;20061;-80
2022/03/19 00:44:30;;;;;;;34.53;16.63;;;0.70;99.90;;;;;;6239901;23;19900;-80
2022/03/19 00:46:55;;;;;;;;;;;0.70;99.90;;;;;;6212570;23;19985;-80
2022/03/19 00:49:21;;;;;;;31.50;16.83;;;0.60;99.90;;;;;;6238539;23;19909;-80
2022/03/19 00:51:47;;;;;;;31.25;14.57;;;0.60;99.90;;;;;;6238734;23;20035;-80
2022/03/19 00:54:15;;;;;;;30.10;14.27;;;0.60;99.90;;;;;;6238603;23;20016;-78
2022/03/19 00:56:42;;;;;;;28.95;13.68;;;0.60;99.90;;;;;;6212690;23;20028;-79
2022/03/19 00:59:08;;;;;;;23.95;12.73;;;0.70;99.90;;;;;;6212115;23;20004;-80
2022/03/19 01:01:35;;;;;;;27.38;13.38;;;0.70;99.90;;;;;;6211638;23;20035;-80
2022/03/19 01:04:01;;;;;;;28.60;13.77;;;0.60;99.90;;;;;;6211757;23;20004;-80
2022/03/19 01:06:26;;;;;;;;;;;0.60;99.90;;;;;;6238903;23;20027;-79
2022/03/19 01:08:52;;;;;;;25.05;11.85;;;0.60;99.90;;;;;;6212260;23;20326;-80
2022/03/19 01:11:23;;;;;;;27.45;13.82;;;0.60;99.90;;;;;;6237364;23;20008;-80
2022/03/19 01:13:55;;;;;;;24.63;14.43;;;0.60;99.90;;;;;;6238343;23;19992;-79
2022/03/19 01:16:21;;;;;;;25.67;12.35;;;0.70;99.90;;;;;;6239544;23;19996;-79
2022/03/19 01:18:48;;;;;;;;;;;0.70;99.90;;;;;;6211477;23;20072;-80
2022/03/19 01:21:15;;;;;;;23.27;12.43;;;0.80;99.90;;;;;;6211930;23;19919;-80
2022/03/19 01:23:41;;;;;;;23.15;12.60;;;0.70;99.90;;;;;;6238025;23;20350;-79
2022/03/19 01:26:07;;;;;;;;;;;0.80;99.90;;;;;;6239337;23;20023;-80
2022/03/19 01:28:32;;;;;;;30.92;14.68;;;0.80;99.90;;;;;;6212278;23;19900;-79
2022/03/19 01:30:58;;;;;;;;;;;0.80;99.90;;;;;;6212184;23;20236;-80
2022/03/19 01:33:23;;;;;;;25.48;12.55;;;0.80;99.90;;;;;;6239527;23;19911;-79
2022/03/19 01:35:49;;;;;;;;;;;0.80;99.90;;;;;;6239612;23;20500;-80
2022/03/19 01:38:15;;;;;;;32.58;15.77;;;0.80;99.90;;;;;;6240180;23;19923;-80
2022/03/19 01:40:40;;;;;;;;;;;0.80;99.90;;;;;;6240223;23;19992;-80
2022/03/19 01:43:06;;;;;;;28.63;12.75;;;0.80;99.90;;;;;;6239013;23;19910;-80
2022/03/19 01:45:31;;;;;;;;;;;0.80;99.90;;;;;;6213370;23;20016;-80
2022/03/19 01:47:57;;;;;;;29.95;13.73;;;0.80;99.90;;;;;;6213688;23;19891;-81
2022/03/19 01:50:24;;;;;;;;;;;0.80;99.90;;;;;;6240547;23;20031;-80
2022/03/19 01:52:50;;;;;;;27.45;13.88;;;0.80;99.90;;;;;;6237483;23;19908;-81
2022/03/19 01:55:21;;;;;;;27.60;14.15;;;0.80;99.90;;;;;;6239126;23;19997;-79
2022/03/19 01:57:48;;;;;;;27.45;15.55;;;0.80;99.90;;;;;;6237760;23;20000;-80
2022/03/19 02:00:17;;;;;;;28.40;13.88;;;0.70;99.90;;;;;;6212281;23;20016;-80
2022/03/19 02:02:44;;;;;;;21.52;12.00;;;0.70;99.90;;;;;;6213400;23;20008;-79
2022/03/19 02:05:17;;;;;;;26.27;14.20;;;0.70;99.90;;;;;;6238784;23;20001;-79
2022/03/19 02:07:44;;;;;;;32.38;15.93;;;0.60;99.90;;;;;;6212241;23;20004;-79
2022/03/19 02:10:12;;;;;;;24.92;14.25;;;0.60;99.90;;;;;;6238692;23;20008;-81
2022/03/19 02:12:38;;;;;;;25.23;14.02;;;0.70;99.90;;;;;;6238196;23;20015;-80
2022/03/19 02:15:04;;;;;;;;;;;0.70;99.90;;;;;;6238381;23;20060;-80
2022/03/19 02:17:30;;;;;;;26.42;13.25;;;0.80;99.90;;;;;;6238186;23;19908;-80
2022/03/19 02:19:57;;;;;;;27.27;14.23;;;0.70;99.90;;;;;;6212713;23;20056;-81
2022/03/19 02:22:26;;;;;;;26.25;13.80;;;0.70;99.90;;;;;;6212618;23;20039;-80
2022/03/19 02:27:38;;;;;;;28.75;13.18;;;0.70;99.90;;;;;;6237224;23;20015;-78
2022/03/19 02:30:06;;;;;;;25.98;13.23;;;0.60;99.90;;;;;;6210927;23;20031;-81
2022/03/19 02:32:33;;;;;;;25.92;14.32;;;0.60;99.90;;;;;;6237633;23;20005;-79
2022/03/19 02:35:00;;;;;;;27.80;13.68;;;0.60;99.90;;;;;;6212194;23;20004;-81
2022/03/19 02:37:26;;;;;;;27.30;14.25;;;0.50;99.90;;;;;;6237747;23;20028;-79
2022/03/19 02:39:52;;;;;;;;;;;0.50;99.90;;;;;;6237722;23;19993;-80
2022/03/19 02:42:19;;;;;;;27.70;13.70;;;0.50;99.90;;;;;;6211721;23;19910;-81
2022/03/19 02:44:46;;;;;;;23.02;12.63;;;0.60;99.90;;;;;;6237862;23;20012;-78
2022/03/19 02:47:12;;;;;;;24.20;12.60;;;0.60;99.90;;;;;;6211308;23;19989;-80
2022/03/19 02:49:38;;;;;;;;;;;0.60;99.90;;;;;;6237598;23;20047;-78
2022/03/19 02:52:04;;;;;;;28.45;14.40;;;0.60;99.90;;;;;;6237245;23;19907;-80
2022/03/19 02:54:31;;;;;;;26.95;13.40;;;0.50;99.90;;;;;;6237203;23;20023;-79
2022/03/19 02:56:59;;;;;;;21.75;11.98;;;0.60;99.90;;;;;;6237071;23;19989;-80
2022/03/19 02:59:33;;;;;;;27.80;14.10;;;0.50;99.90;;;;;;6237164;23;20016;-79
2022/03/19 03:02:06;;;;;;;26.33;14.15;;;0.50;99.90;;;;;;6212441;23;20019;-80
2022/03/19 03:04:32;;;;;;;26.80;14.00;;;0.30;99.90;;;;;;6212276;23;20005;-79
2022/03/19 03:07:00;;;;;;;32.50;16.58;;;0.30;99.90;;;;;;6238981;23;20001;-80
2022/03/19 03:09:27;;;;;;;32.78;16.63;;;0.20;99.90;;;;;;6213213;23;20062;-80
2022/03/19 03:11:54;;;;;;;28.05;15.98;;;0.10;99.90;;;;;;6237333;23;20008;-80
2022/03/19 03:14:20;;;;;;;29.92;16.45;;;0.10;99.90;;;;;;6211742;23;19999;-79
2022/03/19 03:16:48;;;;;;;30.15;16.85;;;0.00;99.90;;;;;;6213485;23;19996;-79
2022/03/19 03:19:15;;;;;;;28.95;16.23;;;0.00;99.90;;;;;;6238513;23;19980;-79
2022/03/19 03:21:41;;;;;;;29.50;15.52;;;0.00;99.90;;;;;;6237053;23;20001;-80
2022/03/19 03:24:07;;;;;;;;;;;0.00;99.90;;;;;;6239358;23;20024;-80
2022/03/19 03:26:33;;;;;;;28.13;15.77;;;0.00;99.90;;;;;;6211388;23;19884;-79
2022/03/19 03:28:58;;;;;;;;;;;0.10;99.90;;;;;;6212262;23;20019;-80
2022/03/19 03:31:27;;;;;;;35.38;16.20;;;0.20;99.90;;;;;;6211031;23;19904;-80
2022/03/19 03:33:54;;;;;;;26.85;15.25;;;0.20;99.90;;;;;;6237171;23;20024;-80
2022/03/19 03:36:21;;;;;;;31.13;16.02;;;0.30;99.90;;;;;;6210949;23;20040;-80
2022/03/19 03:38:47;;;;;;;31.00;17.20;;;0.30;99.90;;;;;;6211354;23;20000;-79
2022/03/19 03:41:13;;;;;;;28.63;15.85;;;0.30;99.90;;;;;;6237295;23;20031;-80
2022/03/19 03:43:39;;;;;;;;;;;0.30;99.90;;;;;;6236405;23;19993;-79
2022/03/19 03:46:04;;;;;;;29.23;16.00;;;0.30;99.90;;;;;;6237799;23;19900;-79
2022/03/19 03:48:30;;;;;;;;;;;0.30;99.90;;;;;;6236093;23;20389;-81
2022/03/19 03:50:57;;;;;;;34.80;18.20;;;0.20;99.90;;;;;;6237809;23;19934;-80
2022/03/19 03:53:25;;;;;;;34.60;17.60;;;0.20;99.90;;;;;;6211704;23;20016;-79
2022/03/19 03:55:51;;;;;;;34.72;17.70;;;0.20;99.90;;;;;;6236599;23;20027;-79
2022/03/19 03:58:16;;;;;;;;;;;0.20;99.90;;;;;;6213080;23;20005;-80
2022/03/19 04:00:42;;;;;;;31.30;16.58;;;0.30;99.90;;;;;;6212480;23;19900;-79
2022/03/19 04:03:08;;;;;;;;;;;0.30;99.90;;;;;;6213242;23;20007;-80
2022/03/19 04:05:34;;;;;;;30.48;15.52;;;0.40;99.90;;;;;;6239435;23;20361;-80
2022/03/19 04:08:00;;;;;;;;;;;0.50;99.90;;;;;;6239929;23;20008;-79
2022/03/19 04:10:27;;;;;;;35.33;16.98;;;0.60;99.90;;;;;;6239020;23;19904;-80
2022/03/19 04:12:52;;;;;;;36.25;16.77;;;0.60;99.90;;;;;;6239706;23;20081;-80
2022/03/19 04:15:18;;;;;;;;;;;0.70;99.90;;;;;;6239477;23;19996;-79
2022/03/19 04:17:44;;;;;;;31.50;16.58;;;0.70;99.90;;;;;;6212498;23;19884;-80
2022/03/19 04:20:11;;;;;;;35.47;17.98;;;0.70;99.90;;;;;;6212207;23;20009;-80
2022/03/19 04:22:39;;;;;;;30.75;17.35;;;0.60;99.90;;;;;;6239237;23;20039;-79
2022/03/19 04:25:19;;;;;;;33.10;17.25;;;0.70;99.90;;;;;;6213848;23;20004;-79
2022/03/19 04:27:47;;;;;;;36.08;19.05;;;0.70;99.90;;;;;;6239947;23;19996;-80
2022/03/19 04:30:15;;;;;;;32.45;17.98;;;0.70;99.90;;;;;;6240525;23;20048;-80
2022/03/19 04:32:44;;;;;;;37.53;19.35;;;1.00;99.90;;;;;;6239860;23;19992;-78
2022/03/19 04:37:56;;;;;;;34.20;18.85;;;1.10;99.90;;;;;;6239285;23;20016;-79
2022/03/19 04:40:22;;;;;;;35.40;17.65;;;1.20;99.90;;;;;;6240190;23;20351;-81
2022/03/19 04:42:48;;;;;;;38.38;18.17;;;1.20;99.90;;;;;;6213489;23;20004;-80
2022/03/19 04:45:13;;;;;;;;;;;1.20;99.90;;;;;;6214710;23;20004;-80
2022/03/19 04:47:39;;;;;;;37.88;17.83;;;1.20;99.90;;;;;;6238634;23;19904;-80
2022/03/19 04:50:05;;;;;;;;;;;1.30;99.90;;;;;;6238860;23;20004;-80
2022/03/19 04:52:31;;;;;;;34.47;17.20;;;1.30;99.90;;;;;;6214006;23;19899;-80
2022/03/19 04:55:00;;;;;;;34.15;16.67;;;1.30;99.90;;;;;;6239239;23;19997;-79
2022/03/19 04:57:27;;;;;;;32.95;17.27;;;1.30;99.90;;;;;;6238779;23;20107;-78
2022/03/19 04:59:53;;;;;;;30.08;16.10;;;1.40;99.90;;;;;;6239516;23;19997;-79
2022/03/19 05:02:20;;;;;;;38.40;16.27;;;1.50;99.90;;;;;;6240095;23;19985;-80
2022/03/19 05:04:46;;;;;;;31.92;16.52;;;1.60;99.90;;;;;;6239600;23;19988;-80
2022/03/19 05:07:11;;;;;;;;;;;1.70;99.90;;;;;;6239686;23;20007;-79
2022/03/19 05:12:41;;;;;;;27.75;15.35;;;1.90;99.90;;;;;;6238365;23;20040;-80
2022/03/19 05:15:10;;;;;;;29.90;15.98;;;2.00;99.90;;;;;;6213702;23;19988;-79
2022/03/19 05:17:36;;;;;;;26.10;14.52;;;2.00;99.90;;;;;;6213490;23;20012;-79
2022/03/19 05:20:03;;;;;;;;;;;2.00;99.90;;;;;;6239654;23;20001;-80
2022/03/19 05:22:32;;;;;;;31.53;15.07;;;2.00;99.90;;;;;;6238952;23;19906;-80
2022/03/19 05:24:58;;;;;;;29.85;15.40;;;2.00;99.90;;;;;;6215252;23;20020;-80
2022/03/19 05:27:25;;;;;;;29.58;16.35;;;1.90;99.90;;;;;;6214805;23;20004;-79
2022/03/19 05:29:50;;;;;;;39.75;17.67;;;2.10;99.30;;;;;;6239247;22;20008;-79
2022/03/19 05:32:16;;;;;;;;;;;2.10;97.60;;;;;;6214591;23;20013;-79
2022/03/19 05:34:42;;;;;;;33.70;18.05;;;2.20;95.30;;;;;;6240778;23;19935;-81
2022/03/19 05:37:09;;;;;;;33.80;18.88;;;2.30;95.70;;;;;;6239064;23;19981;-79
2022/03/19 05:39:35;;;;;;;29.50;15.68;;;2.40;94.60;;;;;;6230730;23;20035;-77
2022/03/19 05:42:02;;;;;;;38.72;18.50;;;2.50;92.30;;;;;;6216977;23;20013;-76
2022/03/19 05:44:28;;;;;;;33.15;17.10;;;2.60;92.80;;;;;;6193155;23;20099;-77
2022/03/19 05:46:53;;;;;;;;;;;2.70;88.90;;;;;;6197473;23;20488;-77
2022/03/19 05:49:19;;;;;;;28.83;16.25;;;2.90;90.00;;;;;;6196430;23;19990;-78
2022/03/19 05:51:45;;;;;;;;;;;3.00;85.50;;;;;;6238211;23;20001;-79
2022/03/19 05:54:10;;;;;;;41.75;19.20;;;3.30;79.20;;;;;;6240680;23;19931;-80
2022/03/19 05:56:37;;;;;;;37.58;17.15;;;3.60;73.30;;;;;;6239782;23;20043;-79
2022/03/19 05:59:05;;;;;;;23.13;12.70;;;4.10;69.00;;;;;;6214785;23;19993;-80
2022/03/19 06:01:31;;;;;;;21.00;11.70;;;4.50;64.90;;;;;;6240640;23;20012;-81
2022/03/19 06:03:58;;;;;;;20.55;11.10;;;4.80;62.20;;;;;;6241882;23;20028;-79
2022/03/19 06:06:25;;;;;;;17.13;10.40;;;5.10;60.40;;;;;;6241914;23;20517;-79
2022/03/19 06:08:52;;;;;;;18.38;11.00;;;5.20;57.90;;;;;;6241620;23;20010;-78
2022/03/19 06:11:18;;;;;;;23.00;10.85;;;5.20;57.20;;;;;;6214254;23;19989;-79
2022/03/19 06:13:44;;;;;;;17.65;11.02;;;5.20;58.10;;;;;;6241349;23;20015;-79
2022/03/19 06:16:10;;;;;;;21.60;11.18;;;5.10;59.50;;;;;;6241639;22;20008;-79
2022/03/19 06:18:35;;;;;;;;;;;5.10;60.50;;;;;;6241540;22;20005;-79
2022/03/19 06:21:02;;;;;;;20.85;11.70;;;5.20;58.50;;;;;;6240239;23;19888;-79
2022/03/19 06:23:27;;;;;;;24.65;11.98;;;5.10;56.20;;;;;;6215589;23;20004;-79
2022/03/19 06:25:53;;;;;;;20.42;11.75;;;5.20;56.20;;;;;;6240379;23;20015;-79
2022/03/19 06:28:19;;;;;;;15.55;9.35;;;5.30;54.20;;;;;;6239832;23;19996;-80
2022/03/19 06:30:46;;;;;;;18.38;10.18;;;5.30;53.40;;;;;;6242188;23;19995;-79
2022/03/19 06:33:12;;;;;;;22.25;10.65;;;5.40;53.00;;;;;;6214345;23;20008;-79
2022/03/19 06:38:23;;;;;;;16.60;10.18;;;5.70;51.40;;;;;;6242280;23;19930;-78
2022/03/19 06:40:48;;;;;;;;;;;6.40;50.10;;;;;;6242404;23;20000;-83
2022/03/19 06:43:14;;;;;;;16.15;9.25;;;7.10;48.30;;;;;;6242248;23;19903;-79
2022/03/19 06:45:40;;;;;;;21.33;10.00;;;7.90;45.30;;;;;;6243426;23;19981;-81
2022/03/19 06:48:06;;;;;;;24.52;10.70;;;8.50;43.20;;;;;;6242268;23;20019;-81
2022/03/19 06:50:31;;;;;;;;;;;8.70;42.80;;;;;;6243390;22;20046;-80
2022/03/19 06:52:57;;;;;;;20.10;10.95;;;9.10;41.30;;;;;;6242559;23;19944;-78
2022/03/19 06:55:23;;;;;;;;;;;9.40;40.90;;;;;;6216915;23;20031;-78
2022/03/19 06:57:48;;;;;;;17.27;8.52;;;9.80;39.10;;;;;;6217024;23;19919;-79
2022/03/19 07:00:14;;;;;;;;;;;10.10;37.00;;;;;;6217569;22;19985;-78
2022/03/19 07:02:51;;;;;;;17.30;9.68;;;10.30;35.60;;;;;;6217210;23;19911;-78
2022/03/19 07:05:24;;;;;;;18.33;9.90;;;10.20;35.50;;;;;;6218604;23;19989;-78
2022/03/19 07:07:50;;;;;;;14.85;9.57;;;10.40;34.80;;;;;;6244872;22;20020;-79
2022/03/19 07:10:18;;;;;;;16.80;8.75;;;10.70;33.90;;;;;;6243882;23;19989;-79
2022/03/19 07:12:45;;;;;;;21.88;12.18;;;10.50;33.20;;;;;;6218575;23;20020;-80
2022/03/19 07:15:15;;;;;;;18.63;10.38;;;10.70;32.50;;;;;;6243434;22;20004;-79
2022/03/19 07:17:43;;;;;;;21.83;13.50;;;10.70;32.20;;;;;;6217697;23;20015;-78
2022/03/19 07:20:12;;;;;;;19.45;9.80;;;10.70;32.20;;;;;;6217009;22;20005;-78
2022/03/19 07:22:55;;;;;;;18.27;8.70;;;10.90;32.20;;;;;;6244539;22;19992;-78
2022/03/19 07:25:24;;;;;;;16.45;8.27;;;11.30;30.70;;;;;;6244639;22;19992;-79
2022/03/19 07:27:51;;;;;;;14.18;8.80;;;11.40;29.90;;;;;;6219094;22;19999;-79
2022/03/19 07:30:17;;;;;;;13.35;8.65;;;11.30;30.00;;;;;;6244551;22;20009;-79
2022/03/19 07:32:42;;;;;;;;;;;11.40;29.90;;;;;;6244718;22;19997;-78
2022/03/19 07:35:09;;;;;;;16.52;8.85;;;11.70;30.00;;;;;;6244075;22;19888;-78
2022/03/19 07:37:37;;;;;;;12.85;7.95;;;12.00;29.20;;;;;;6244364;22;20009;-78
2022/03/19 07:40:04;;;;;;;18.17;8.70;;;12.10;28.30;;;;;;6243554;22;20004;-78
2022/03/19 07:42:30;;;;;;;24.77;16.17;;;12.30;28.40;;;;;;6243481;22;20020;-78
2022/03/19 07:44:55;;;;;;;;;;;12.40;28.50;;;;;;6217724;23;19989;-78
2022/03/19 07:47:21;;;;;;;16.83;9.55;;;12.10;28.30;;;;;;6217788;22;19888;-78
2022/03/19 07:52:12;;;;;;;;;;;12.70;26.80;;;;;;6203871;23;20058;-80
2022/03/19 07:54:39;;;;;;;16.30;8.20;;;12.50;27.10;;;;;;6242758;23;19902;-79
2022/03/19 07:57:05;;;;;;;11.77;7.72;;;12.90;26.70;;;;;;6240270;23;20027;-79
2022/03/19 07:59:31;;;;;;;14.55;8.35;;;13.00;26.40;;;;;;6265354;23;20003;-79
2022/03/19 08:01:57;;;;;;;;;;;13.00;26.20;;;;;;6238133;23;20000;-79
2022/03/19 08:04:23;;;;;;;12.48;7.78;;;12.80;26.30;;;;;;6269613;23;19900;-80
2022/03/19 08:06:53;;;;;;;16.92;8.93;;;12.80;26.00;;;;;;6268067;23;20000;-79
2022/03/19 08:09:19;;;;;;;27.08;13.95;;;12.60;26.10;;;;;;6267991;23;20026;-80
2022/03/19 08:11:46;;;;;;;20.08;13.27;;;12.60;26.60;;;;;;6267608;23;20015;-80
2022/03/19 08:14:14;;;;;;;13.00;8.18;;;12.50;27.60;;;;;;6268823;23;20000;-81
2022/03/19 08:16:41;;;;;;;18.08;10.85;;;12.90;26.30;;;;;;6242980;23;20015;-79
2022/03/19 08:19:07;;;;;;;18.45;10.38;;;12.70;26.40;;;;;;6267908;23;19981;-79
2022/03/19 08:21:33;;;;;;;;;;;12.50;26.50;;;;;;6269015;23;20007;-80
2022/03/19 08:23:58;;;;;;;18.95;12.25;;;12.70;26.40;;;;;;6242899;23;19910;-79
2022/03/19 08:26:24;;;;;;;;;;;12.70;26.90;;;;;;6270713;23;20032;-80
2022/03/19 08:28:50;;;;;;;18.88;9.07;;;12.70;26.50;;;;;;6273467;23;19888;-79
2022/03/19 08:31:15;;;;;;;;;;;12.60;26.70;;;;;;6275419;22;20000;-78
2022/03/19 08:33:41;;;;;;;23.10;12.10;;;12.80;26.70;;;;;;6275316;22;19888;-78
2022/03/19 08:36:06;;;;;;;;;;;13.30;26.50;;;;;;6275555;22;20007;-77
2022/03/19 08:41:16;;;;;;;17.65;10.60;;;13.10;26.40;;;;;;6275115;22;20015;-78
2022/03/19 08:43:44;;;;;;;;;;;13.40;26.60;;;;;;6277011;22;19988;-77
2022/03/19 08:46:10;;;;;;;21.17;11.05;;;13.50;26.60;;;;;;6250923;23;19894;-76
2022/03/19 08:48:36;;;;;;;18.90;12.38;;;13.60;26.50;;;;;;6251288;23;19992;-75
2022/03/19 09:11:08;;;;;;;21.98;10.82;;;14.40;26.00;;;;;;6181087;23;20099;-85
2022/03/19 09:13:36;;;;;;;;;;;14.50;25.80;;;;;;6241063;22;19996;-82
2022/03/19 09:16:06;;;;;;;19.83;10.85;;;14.90;25.40;;;;;;6237199;22;20401;-83
2022/03/19 09:18:32;;;;;;;16.45;11.15;;;15.10;25.30;;;;;;6235001;23;20001;-78
2022/03/19 09:20:58;;;;;;;16.02;11.02;;;15.40;24.70;;;;;;6215783;23;20003;-78
2022/03/19 09:23:24;;;;;;;;;;;15.10;24.10;;;;;;6208027;23;19985;-78
2022/03/19 09:25:51;;;;;;;17.85;10.35;;;14.70;24.80;;;;;;6216716;23;20249;-80
2022/03/19 09:28:16;;;;;;;14.93;9.20;;;14.60;25.40;;;;;;6215718;23;20000;-82
2022/03/19 09:30:42;;;;;;;;;;;15.00;24.60;;;;;;6238916;23;20008;-79
2022/03/19 09:33:08;;;;;;;17.90;9.32;;;15.10;24.40;;;;;;6244426;23;19896;-78
2022/03/19 09:35:35;;;;;;;15.50;9.75;;;15.10;24.60;;;;;;6220030;22;20005;-76
2022/03/19 09:38:01;;;;;;;14.27;9.00;;;15.10;23.70;;;;;;6245978;22;20005;-77
2022/03/19 09:40:27;;;;;;;;;;;15.30;23.50;;;;;;6220644;23;20012;-77
2022/03/19 09:42:54;;;;;;;18.75;10.25;;;15.00;24.20;;;;;;6245486;22;19936;-80
2022/03/19 09:45:23;;;;;;;17.50;9.90;;;15.10;23.50;;;;;;6219841;23;20045;-78
2022/03/19 09:47:49;;;;;;;17.25;10.38;;;14.60;24.30;;;;;;6245699;22;19985;-80
2022/03/19 10:00:47;;;;;;;21.42;9.85;;;15.20;22.80;;;;;;6214025;23;20016;-80
2022/03/19 10:03:13;;;;;;;21.27;11.25;;;15.10;22.80;;;;;;6244827;23;19988;-80
2022/03/19 10:08:39;;;;;;;16.40;8.93;;;15.10;22.90;;;;;;6245423;23;20003;-76
2022/03/19 10:11:15;;;;;;;13.55;7.82;;;14.50;22.20;;;;;;6220027;23;20008;-76
2022/03/19 10:13:45;;;;;;;10.50;7.53;;;14.80;22.40;;;;;;6245777;23;19992;-75
2022/03/19 10:16:22;;;;;;;19.13;9.18;;;14.80;22.20;;;;;;6219968;23;20056;-77
2022/03/19 10:19:01;;;;;;;;;;;15.00;22.40;;;;;;6245872;23;20004;-77
2022/03/19 10:21:28;;;;;;;14.45;9.23;;;14.90;22.60;;;;;;6245566;23;19894;-77
2022/03/19 10:23:59;;;;;;;14.82;8.45;;;15.00;22.50;;;;;;6219914;23;20039;-77
2022/03/19 10:26:30;;;;;;;18.75;9.38;;;14.90;22.10;;;;;;6245583;23;20000;-78
2022/03/19 10:29:01;;;;;;;16.77;9.00;;;14.90;21.80;;;;;;6245630;23;19988;-77
2022/03/19 10:31:37;;;;;;;14.52;7.72;;;14.70;22.20;;;;;;6245482;23;19993;-78
2022/03/19 10:34:05;;;;;;;13.80;8.85;;;14.80;22.00;;;;;;6219709;23;19989;-77
2022/03/19 10:36:31;;;;;;;14.88;8.15;;;14.30;22.10;;;;;;6219769;23;19992;-77
2022/03/19 10:38:57;;;;;;;16.52;8.82;;;14.00;22.40;;;;;;6240701;23;19992;-79
2022/03/19 10:41:23;;;;;;;;;;;13.40;22.60;;;;;;6240323;23;19985;-80
2022/03/19 10:43:48;;;;;;;19.63;11.48;;;12.70;23.60;;;;;;6214347;23;19904;-80
2022/03/19 10:46:20;;;;;;;;;;;12.50;24.50;;;;;;6244923;23;19989;-80
2022/03/19 10:48:52;;;;;;;15.68;9.13;;;12.30;25.20;;;;;;6244163;23;19896;-81
2022/03/19 10:51:20;;;;;;;14.85;8.77;;;12.20;25.20;;;;;;6244432;23;20000;-80
2022/03/19 10:53:48;;;;;;;22.15;9.52;;;11.90;25.40;;;;;;6218310;23;20466;-79
2022/03/19 10:56:15;;;;;;;13.73;8.18;;;11.60;25.40;;;;;;6218746;23;19993;-80
2022/03/19 10:58:41;;;;;;;18.23;8.65;;;11.30;25.40;;;;;;6216936;23;20004;-77
2022/03/19 11:01:09;;;;;;;15.05;8.68;;;11.10;26.00;;;;;;6235337;23;20103;-78
2022/03/19 11:03:38;;;;;;;14.48;8.68;;;11.20;25.60;;;;;;6237616;23;19997;-80
2022/03/19 11:06:06;;;;;;;16.92;8.90;;;11.00;26.20;;;;;;6237116;23;20004;-78
2022/03/19 11:08:39;;;;;;;16.30;8.90;;;10.80;26.30;;;;;;6238472;23;20000;-78
2022/03/19 11:11:16;;;;;;;20.75;9.25;;;10.90;26.30;;;;;;6216038;23;20004;-80
2022/03/19 11:13:49;;;;;;;16.98;9.50;;;10.90;26.80;;;;;;6242746;22;20008;-80
2022/03/19 11:16:20;;;;;;;15.48;8.65;;;10.80;26.50;;;;;;6216951;22;20028;-80
2022/03/19 11:18:47;;;;;;;19.80;11.07;;;10.90;26.10;;;;;;6242064;23;20016;-80
2022/03/19 11:21:16;;;;;;;18.33;9.38;;;10.70;26.30;;;;;;6243820;23;19993;-79
2022/03/19 11:24:03;;;;;;;14.30;8.32;;;10.80;26.40;;;;;;6244926;22;19991;-79
2022/03/19 11:26:30;;;;;;;;;;;10.90;26.00;;;;;;6219432;22;20008;-77
2022/03/19 11:28:56;;;;;;;18.17;8.50;;;10.90;26.10;;;;;;6244515;22;19904;-79
2022/03/19 11:31:30;;;;;;;16.63;9.05;;;11.00;26.20;;;;;;6244920;22;19993;-79
2022/03/19 11:34:14;;;;;;;15.18;8.82;;;11.20;25.60;;;;;;6244892;22;20027;-78
2022/03/19 11:37:02;;;;;;;18.42;9.02;;;10.80;25.40;;;;;;6241772;22;20015;-77
2022/03/19 11:39:28;;;;;;;13.60;7.57;;;11.00;25.60;;;;;;6243424;22;19984;-79
2022/03/19 11:41:54;;;;;;;;;;;11.00;25.40;;;;;;6218422;23;19993;-79
2022/03/19 11:44:28;;;;;;;14.00;8.23;;;11.00;25.20;;;;;;6217804;22;19927;-80
2022/03/19 11:46:57;;;;;;;12.60;8.07;;;10.90;25.50;;;;;;6243281;23;20008;-79
2022/03/19 13:36:54;;;;;;;13.75;6.75;;;11.30;21.20;;;;;;6192958;23;20082;-80
2022/03/19 13:39:23;;;;;;;14.32;6.80;;;11.30;21.00;;;;;;6245306;23;19996;-80
2022/03/19 13:42:02;;;;;;;12.90;6.68;;;11.20;20.90;;;;;;6219883;23;19993;-80
2022/03/19 13:44:28;;;;;;;15.32;7.38;;;11.00;21.20;;;;;;6245395;23;19985;-77
2022/03/19 18:40:12;;;;;;;11.82;5.18;;;5.40;26.00;;;;;;6238785;23;20089;-79
2022/03/19 18:42:38;;;;;;;15.82;5.63;;;5.40;26.10;;;;;;6240149;22;19988;-79
2022/03/19 18:45:05;;;;;;;10.95;5.75;;;5.40;26.10;;;;;;6216012;23;20004;-79
2022/03/19 18:47:31;;;;;;;10.90;5.38;;;5.30;26.20;;;;;;6237036;23;20028;-79
2022/03/19 18:49:58;;;;;;;14.45;5.53;;;5.20;26.30;;;;;;6239901;23;20056;-79
2022/03/19 18:52:24;;;;;;;12.68;6.53;;;5.20;26.30;;;;;;6240503;23;20004;-80
2022/03/19 18:54:54;;;;;;;;;;;5.20;26.40;;;;;;6232600;23;20069;-79
2022/03/19 18:57:22;;;;;;;16.45;6.53;;;5.10;26.60;;;;;;6236159;23;19908;-79
2022/03/19 18:59:48;;;;;;;9.38;4.78;;;5.10;26.70;;;;;;6233920;23;20020;-80
2022/03/19 19:02:14;;;;;;;;;;;5.00;26.80;;;;;;6235351;23;19988;-79
2022/03/19 19:04:41;;;;;;;13.90;6.22;;;5.00;26.90;;;;;;6211680;23;19891;-79
2022/03/19 19:07:08;;;;;;;14.15;5.90;;;5.00;27.10;;;;;;6232834;23;20005;-79
2022/03/19 19:09:34;;;;;;;16.80;6.45;;;4.90;27.20;;;;;;6197447;23;20584;-79
2022/03/19 19:12:00;;;;;;;12.27;6.32;;;4.90;27.20;;;;;;6214694;23;20048;-77
2022/03/19 19:14:25;;;;;;;11.75;5.50;;;4.90;27.20;;;;;;6234946;23;20011;-79
2022/03/19 19:16:52;;;;;;;11.52;5.75;;;4.90;27.30;;;;;;6235648;23;20011;-80
2022/03/19 19:19:18;;;;;;;13.55;6.13;;;4.90;27.40;;;;;;6230611;23;20005;-80
2022/03/19 19:21:43;;;;;;;14.82;6.32;;;4.90;27.40;;;;;;6237188;23;20018;-79
2022/03/19 19:24:09;;;;;;;;;;;4.90;27.50;;;;;;6236607;23;20000;-80
2022/03/19 19:26:35;;;;;;;17.50;7.97;;;4.90;27.60;;;;;;6239894;23;19906;-79
2022/03/19 19:29:04;;;;;;;15.57;7.32;;;4.80;27.50;;;;;;6239687;23;20005;-77
2022/03/19 19:31:30;;;;;;;14.25;7.07;;;4.80;27.40;;;;;;6244706;22;19992;-79
2022/03/19 19:33:56;;;;;;;16.17;7.07;;;4.90;27.40;;;;;;6244725;22;20016;-80
2022/03/19 19:36:27;;;;;;;;;;;4.80;27.20;;;;;;6244342;22;20031;-80
2022/03/19 19:38:54;;;;;;;19.92;6.05;;;4.80;27.00;;;;;;6217747;23;19900;-80
2022/03/19 19:41:21;;;;;;;10.57;5.22;;;4.90;26.80;;;;;;6243835;22;19996;-78
2022/03/19 19:43:47;;;;;;;10.32;4.95;;;4.90;26.70;;;;;;6243909;22;20016;-80
2022/03/19 19:46:12;;;;;;;12.63;5.80;;;4.80;26.50;;;;;;6218196;23;20070;-80
2022/03/19 19:48:38;;;;;;;;;;;4.80;26.50;;;;;;6218991;23;20044;-79
2022/03/19 19:51:05;;;;;;;16.08;5.28;;;4.80;26.50;;;;;;6243453;22;19935;-80
2022/03/19 19:53:33;;;;;;;13.13;5.93;;;4.90;26.40;;;;;;6218043;23;19993;-80
2022/03/19 19:55:59;;;;;;;11.30;5.35;;;4.90;26.50;;;;;;6243686;22;19996;-80
2022/03/19 19:58:25;;;;;;;;;;;4.90;26.40;;;;;;6244118;22;19989;-80
2022/03/19 20:00:52;;;;;;;13.90;5.45;;;4.90;26.30;;;;;;6243661;22;19888;-79
2022/03/19 20:03:19;;;;;;;13.88;6.35;;;4.90;26.20;;;;;;6244013;22;19989;-80
2022/03/19 20:05:55;;;;;;;14.70;6.07;;;4.90;26.30;;;;;;6244145;22;20011;-79
2022/03/19 20:08:21;;;;;;;15.65;6.82;;;4.90;26.20;;;;;;6243584;22;19985;-80
2022/03/19 20:10:47;;;;;;;13.70;6.45;;;4.90;26.20;;;;;;6243454;22;20020;-80
2022/03/19 20:13:14;;;;;;;11.82;5.57;;;4.90;26.10;;;;;;6244335;22;20032;-78
2022/03/19 20:15:40;;;;;;;10.77;5.43;;;5.00;26.00;;;;;;6217924;23;19996;-80
2022/03/19 20:18:07;;;;;;;9.50;5.25;;;5.00;25.90;;;;;;6243966;22;19993;-80
2022/03/19 20:20:34;;;;;;;11.70;5.40;;;4.90;26.00;;;;;;6243775;22;20001;-78
2022/03/19 20:23:00;;;;;;;9.57;4.93;;;5.00;26.00;;;;;;6243354;23;20021;-79
2022/03/19 20:25:27;;;;;;;12.23;5.95;;;5.00;25.90;;;;;;6242945;23;19989;-78